createdAt,value
2022-10-06T00:01:06.307Z,1.00
2022-10-06T00:03:45.752Z,1.00
2022-10-06T00:06:15.268Z,1.00
2022-10-06T00:08:43.957Z,1.00
2022-10-06T00:11:12.763Z,1.00
2022-10-06T00:13:40.746Z,1.00
2022-10-06T00:16:15.226Z,1.00
2022-10-06T00:18:43.014Z,1.00
2022-10-06T00:21:10.664Z,1.00
2022-10-06T00:23:37.810Z,1.00
2022-10-06T00:26:05.041Z,1.00
2022-10-06T00:28:32.948Z,1.00
2022-10-06T00:31:03.067Z,1.00
2022-10-06T00:33:30.278Z,1.00
2022-10-06T00:35:58.462Z,1.00
2022-10-06T00:38:27.519Z,1.00
2022-10-06T00:40:55.172Z,1.00
2022-10-06T00:43:45.922Z,1.00
2022-10-06T00:46:32.625Z,1.00
2022-10-06T00:49:26.119Z,1.00
2022-10-06T00:51:57.848Z,1.00
2022-10-06T00:54:25.682Z,1.00
2022-10-06T00:56:52.963Z,1.00
2022-10-06T00:59:20.754Z,9.20
2022-10-06T01:02:04.148Z,15.90
2022-10-06T01:04:35.265Z,18.90
2022-10-06T01:07:03.089Z,22.00
2022-10-06T01:09:31.475Z,23.70
2022-10-06T01:12:02.469Z,25.40
2022-10-06T01:14:30.545Z,32.30
2022-10-06T01:17:02.995Z,35.70
2022-10-06T01:19:40.878Z,52.50
2022-10-06T01:22:10.433Z,98.90
2022-10-06T01:24:38.659Z,83.70
2022-10-06T01:27:08.218Z,89.40
2022-10-06T01:29:36.239Z,98.80
2022-10-06T01:32:03.852Z,99.90
2022-10-06T01:34:31.532Z,99.90
2022-10-06T01:36:59.151Z,99.90
2022-10-06T01:39:27.634Z,99.90
2022-10-06T01:41:55.522Z,99.90
2022-10-06T01:44:22.589Z,99.90
2022-10-06T01:46:51.448Z,99.90
2022-10-06T01:49:18.645Z,99.90
2022-10-06T01:51:47.416Z,99.90
2022-10-06T01:54:15.219Z,1.00
2022-10-06T01:56:43.114Z,99.90
2022-10-06T01:59:10.335Z,1.00
2022-10-06T02:01:38.089Z,1.00
2022-10-06T02:04:05.470Z,1.00
2022-10-06T02:06:33.333Z,99.90
2022-10-06T02:09:00.919Z,99.90
2022-10-06T02:11:28.500Z,99.90
2022-10-06T02:13:55.802Z,99.90
2022-10-06T02:16:23.780Z,99.90
2022-10-06T02:18:51.006Z,1.00
2022-10-06T02:21:21.773Z,1.00
2022-10-06T02:23:49.464Z,1.00
2022-10-06T02:26:17.855Z,1.00
2022-10-06T02:28:47.010Z,1.00
2022-10-06T02:31:19.089Z,1.00
2022-10-06T02:33:46.410Z,1.00
2022-10-06T02:36:16.810Z,1.00
2022-10-06T02:38:44.915Z,1.00
2022-10-06T02:41:12.533Z,1.00
2022-10-06T02:43:40.065Z,1.00
2022-10-06T02:46:12.241Z,1.00
2022-10-06T02:48:43.571Z,1.00
2022-10-06T02:51:17.185Z,1.00
2022-10-06T02:53:48.238Z,1.00
2022-10-06T02:56:24.173Z,40.80
2022-10-06T02:58:53.203Z,49.90
2022-10-06T03:01:30.381Z,71.50
2022-10-06T03:04:08.167Z,62.00
2022-10-06T03:06:36.081Z,37.20
2022-10-06T03:09:09.354Z,25.00
2022-10-06T03:11:41.333Z,21.20
2022-10-06T03:14:10.075Z,6.80
2022-10-06T03:16:40.341Z,1.00
2022-10-06T03:19:13.888Z,1.00
2022-10-06T03:21:44.730Z,1.00
2022-10-06T03:24:13.537Z,1.00
2022-10-06T03:26:45.582Z,1.00
2022-10-06T03:29:16.186Z,1.00
2022-10-06T03:31:47.767Z,1.00
2022-10-06T03:34:15.257Z,1.00
2022-10-06T03:36:44.418Z,1.00
2022-10-06T03:39:12.765Z,1.00
2022-10-06T03:41:40.863Z,1.00
2022-10-06T03:44:10.009Z,1.00
2022-10-06T03:46:40.682Z,1.00
2022-10-06T03:49:08.763Z,1.00
2022-10-06T03:51:38.369Z,1.00
2022-10-06T03:54:11.014Z,1.00
2022-10-06T03:56:41.421Z,1.00
2022-10-06T03:59:13.430Z,1.00
2022-10-06T04:01:45.354Z,1.00
2022-10-06T04:04:15.389Z,1.00
2022-10-06T04:06:44.870Z,1.00
2022-10-06T04:09:16.694Z,1.00
2022-10-06T04:11:45.664Z,1.00
2022-10-06T04:14:15.759Z,1.00
2022-10-06T04:16:45.845Z,1.00
2022-10-06T04:19:16.412Z,1.00
2022-10-06T04:21:48.003Z,1.00
2022-10-06T04:24:19.354Z,1.00
2022-10-06T04:26:49.143Z,1.00
2022-10-06T04:29:17.791Z,1.00
2022-10-06T04:31:48.428Z,1.00
2022-10-06T04:34:24.552Z,1.00
2022-10-06T04:36:53.678Z,1.00
2022-10-06T04:39:21.002Z,1.00
2022-10-06T04:41:48.208Z,1.00
2022-10-06T04:44:20.570Z,1.00
2022-10-06T04:46:48.797Z,1.00
2022-10-06T04:49:20.257Z,1.00
2022-10-06T04:51:50.105Z,1.00
2022-10-06T04:54:19.364Z,1.00
2022-10-06T04:56:49.964Z,1.00
2022-10-06T04:59:19.888Z,1.00
2022-10-06T05:01:49.063Z,1.00
2022-10-06T05:04:16.311Z,1.00
2022-10-06T05:06:43.802Z,1.00
2022-10-06T05:09:15.828Z,1.00
2022-10-06T05:11:48.751Z,1.00
2022-10-06T05:14:19.297Z,1.00
2022-10-06T05:16:49.587Z,1.00
2022-10-06T05:19:17.380Z,1.00
2022-10-06T05:21:44.867Z,1.00
2022-10-06T05:24:17.561Z,1.00
2022-10-06T05:26:45.149Z,1.00
2022-10-06T05:29:14.998Z,1.00
2022-10-06T05:31:43.754Z,1.00
2022-10-06T05:34:12.306Z,1.00
2022-10-06T05:36:40.276Z,1.00
2022-10-06T05:39:09.486Z,1.00
2022-10-06T05:41:44.761Z,1.00
2022-10-06T05:44:13.649Z,1.00
2022-10-06T05:46:42.210Z,1.00
2022-10-06T05:49:11.539Z,1.00
2022-10-06T05:51:42.485Z,1.00
2022-10-06T05:54:15.738Z,1.00
2022-10-06T05:56:43.298Z,1.00
2022-10-06T05:59:11.123Z,1.00
2022-10-06T06:01:41.824Z,1.00
2022-10-06T06:04:20.615Z,1.00
2022-10-06T06:06:52.249Z,1.00
2022-10-06T06:09:22.930Z,1.00
2022-10-06T06:11:53.337Z,1.00
2022-10-06T06:14:46.426Z,1.00
2022-10-06T06:17:18.681Z,1.00
2022-10-06T06:19:46.136Z,1.00
2022-10-06T06:22:13.675Z,1.00
2022-10-06T06:24:43.956Z,1.00
2022-10-06T06:27:12.289Z,1.00
2022-10-06T06:29:41.085Z,1.00
2022-10-06T06:32:09.791Z,99.90
2022-10-06T06:34:37.752Z,99.90
2022-10-06T06:37:09.479Z,70.10
2022-10-06T06:39:40.435Z,32.90
2022-10-06T06:42:08.648Z,17.50
2022-10-06T06:44:50.966Z,18.90
2022-10-06T06:47:26.832Z,37.10
2022-10-06T06:49:55.141Z,74.10
2022-10-06T06:52:26.234Z,89.20
2022-10-06T06:54:54.303Z,93.80
2022-10-06T06:57:22.454Z,99.90
2022-10-06T06:59:52.524Z,99.90
2022-10-06T07:02:20.434Z,99.90
2022-10-06T07:04:49.691Z,99.90
2022-10-06T07:07:21.233Z,94.90
2022-10-06T07:09:48.905Z,99.90
2022-10-06T07:12:18.775Z,99.90
2022-10-06T07:15:12.752Z,99.60
2022-10-06T07:18:02.123Z,99.30
2022-10-06T07:20:49.383Z,99.70
2022-10-06T07:23:37.920Z,98.80
2022-10-06T07:26:08.982Z,96.60
2022-10-06T07:28:37.565Z,96.60
2022-10-06T07:31:04.999Z,97.40
2022-10-06T07:33:33.968Z,94.60
2022-10-06T07:36:04.981Z,90.90
2022-10-06T07:38:33.817Z,81.30
2022-10-06T07:43:56.286Z,67.90
2022-10-06T07:46:26.291Z,64.30
2022-10-06T07:48:58.373Z,60.50
2022-10-06T07:51:28.155Z,63.90
2022-10-06T07:53:57.526Z,52.80
2022-10-06T07:56:32.645Z,45.40
2022-10-06T07:59:00.457Z,42.40
2022-10-06T08:01:29.632Z,62.70
2022-10-06T08:03:57.620Z,41.90
2022-10-06T08:06:25.270Z,39.10
2022-10-06T08:08:53.414Z,35.20
2022-10-06T08:11:22.832Z,30.00
2022-10-06T08:13:52.046Z,22.70
2022-10-06T08:16:25.000Z,32.60
2022-10-06T08:18:55.024Z,10.80
2022-10-06T08:21:24.577Z,12.20
2022-10-06T08:23:52.994Z,11.30
2022-10-06T08:26:22.067Z,12.40
2022-10-06T08:28:51.715Z,13.00
2022-10-06T08:31:21.463Z,10.50
2022-10-06T08:33:53.228Z,8.40
2022-10-06T08:36:21.193Z,11.90
2022-10-06T08:38:50.575Z,9.00
2022-10-06T08:41:26.539Z,6.90
2022-10-06T08:44:18.620Z,5.40
2022-10-06T08:47:03.517Z,1.00
2022-10-06T08:49:51.955Z,1.00
2022-10-06T08:52:48.177Z,1.00
2022-10-06T08:55:37.813Z,1.00
2022-10-06T08:58:31.692Z,1.00
2022-10-06T09:01:17.317Z,1.00
2022-10-06T09:03:49.512Z,1.00
2022-10-06T09:06:43.636Z,1.00
2022-10-06T09:09:33.645Z,1.00
2022-10-06T09:12:08.058Z,1.00
2022-10-06T09:14:40.041Z,1.00
2022-10-06T09:17:13.071Z,1.00
2022-10-06T09:19:43.076Z,1.00
2022-10-06T09:22:17.947Z,1.00
2022-10-06T09:24:50.288Z,1.00
2022-10-06T09:27:43.709Z,1.00
2022-10-06T09:30:14.037Z,1.00
2022-10-06T09:32:59.439Z,1.00
2022-10-06T09:35:29.331Z,1.00
2022-10-06T09:38:08.596Z,1.00
2022-10-06T09:40:49.217Z,1.00
2022-10-06T09:43:26.936Z,1.00
2022-10-06T09:45:55.504Z,1.00
2022-10-06T09:48:26.139Z,1.00
2022-10-06T09:51:16.582Z,1.00
2022-10-06T09:54:03.078Z,1.00
2022-10-06T09:56:33.280Z,1.00
2022-10-06T09:59:01.915Z,1.00
2022-10-06T10:01:31.871Z,1.00
2022-10-06T10:04:20.126Z,1.00
2022-10-06T10:06:48.523Z,1.00
2022-10-06T10:09:31.690Z,1.00
2022-10-06T10:12:28.081Z,1.00
2022-10-06T10:14:58.994Z,1.00
2022-10-06T10:17:59.171Z,1.00
2022-10-06T10:20:34.119Z,1.00
2022-10-06T10:23:30.962Z,1.00
2022-10-06T10:26:20.479Z,1.00
2022-10-06T10:29:27.303Z,1.00
2022-10-06T10:32:37.870Z,1.00
2022-10-06T10:35:05.107Z,1.00
2022-10-06T10:37:53.637Z,1.00
2022-10-06T10:40:48.301Z,1.00
2022-10-06T10:43:35.053Z,1.00
2022-10-06T10:46:32.296Z,1.00
2022-10-06T10:49:18.431Z,1.00
2022-10-06T10:52:07.061Z,1.00
2022-10-06T10:55:03.396Z,1.00
2022-10-06T10:57:40.780Z,1.00
2022-10-06T11:00:20.892Z,1.00
2022-10-06T11:02:48.828Z,1.00
2022-10-06T11:05:37.726Z,1.00
2022-10-06T11:08:49.684Z,1.00
2022-10-06T11:11:41.411Z,1.00
2022-10-06T11:14:32.452Z,1.00
2022-10-06T11:17:26.187Z,1.00
2022-10-06T11:20:29.864Z,1.00
2022-10-06T11:23:12.072Z,1.00
2022-10-06T11:26:02.575Z,1.00
2022-10-06T11:28:39.553Z,1.00
2022-10-06T11:31:29.250Z,1.00
2022-10-06T11:34:00.548Z,1.00
2022-10-06T11:36:57.995Z,1.00
2022-10-06T11:39:48.119Z,1.00
2022-10-06T11:42:30.672Z,1.00
2022-10-06T11:45:06.297Z,1.00
2022-10-06T11:47:52.001Z,1.00
2022-10-06T11:50:34.884Z,1.00
2022-10-06T11:53:03.096Z,1.00
2022-10-06T11:55:30.797Z,1.00
2022-10-06T11:58:23.554Z,1.00
2022-10-06T12:00:55.478Z,1.00
2022-10-06T12:03:31.261Z,1.00
2022-10-06T12:05:59.270Z,1.00
2022-10-06T12:08:40.988Z,1.00
2022-10-06T12:11:47.872Z,1.00
2022-10-06T12:17:40.866Z,1.00
2022-10-06T12:20:34.952Z,1.00
2022-10-06T12:23:18.193Z,1.00
2022-10-06T12:26:01.420Z,1.00
2022-10-06T12:28:52.757Z,1.00
2022-10-06T12:31:46.365Z,1.00
2022-10-06T12:34:43.148Z,1.00
2022-10-06T12:37:28.970Z,1.00
2022-10-06T12:40:33.889Z,1.00
2022-10-06T12:43:19.530Z,1.00
2022-10-06T12:45:52.806Z,1.00
2022-10-06T12:48:57.359Z,1.00
2022-10-06T12:51:44.025Z,1.00
2022-10-06T12:57:02.705Z,1.00
2022-10-06T12:59:33.800Z,1.00
2022-10-06T13:02:04.884Z,1.00
2022-10-06T13:04:45.730Z,1.00
2022-10-06T13:07:18.083Z,1.00
2022-10-06T13:09:47.141Z,1.00
2022-10-06T13:12:23.756Z,1.00
2022-10-06T13:15:12.906Z,1.00
2022-10-06T13:18:03.559Z,1.00
2022-10-06T13:20:33.936Z,1.00
2022-10-06T13:23:14.636Z,1.00
2022-10-06T13:25:45.294Z,1.00
2022-10-06T13:28:33.148Z,1.00
2022-10-06T13:31:03.182Z,1.00
2022-10-06T13:33:38.030Z,1.00
2022-10-06T13:36:07.634Z,1.00
2022-10-06T13:38:36.196Z,1.00
2022-10-06T13:41:06.342Z,1.00
2022-10-06T13:43:41.048Z,1.00
2022-10-06T13:46:16.179Z,1.00
2022-10-06T13:48:51.489Z,1.00
2022-10-06T13:51:29.885Z,1.00
2022-10-06T13:54:04.336Z,1.00
2022-10-06T13:56:38.203Z,1.00
2022-10-06T13:59:32.318Z,1.00
2022-10-06T14:02:18.307Z,1.00
2022-10-06T14:05:05.108Z,1.00
2022-10-06T14:07:32.953Z,1.00
2022-10-06T14:10:00.307Z,1.00
2022-10-06T14:12:27.803Z,1.00
2022-10-06T14:14:55.540Z,1.00
2022-10-06T14:17:25.755Z,1.00
2022-10-06T14:19:53.103Z,1.00
2022-10-06T14:22:34.580Z,1.00
2022-10-06T14:25:02.476Z,1.00
2022-10-06T14:27:29.949Z,1.00
2022-10-06T14:29:57.772Z,1.00
2022-10-06T14:32:25.310Z,1.00
2022-10-06T14:34:53.089Z,1.00
2022-10-06T14:37:20.482Z,1.00
2022-10-06T14:39:51.082Z,1.00
2022-10-06T14:42:22.699Z,1.00
2022-10-06T14:44:50.366Z,1.00
2022-10-06T14:47:17.851Z,1.00
2022-10-06T14:49:45.464Z,1.00
2022-10-06T14:52:12.893Z,1.00
2022-10-06T14:54:42.799Z,1.00
2022-10-06T14:57:10.343Z,1.00
2022-10-06T14:59:37.564Z,1.00
2022-10-06T15:02:05.377Z,1.00
2022-10-06T15:04:32.857Z,1.00
2022-10-06T15:07:18.542Z,1.00
2022-10-06T15:09:46.019Z,1.00
2022-10-06T15:12:14.005Z,1.00
2022-10-06T15:14:41.546Z,1.00
2022-10-06T15:17:09.460Z,1.00
2022-10-06T15:19:37.435Z,1.00
2022-10-06T15:22:06.477Z,1.00
2022-10-06T15:24:34.222Z,1.00
2022-10-06T15:27:24.730Z,1.00
2022-10-06T15:29:52.960Z,1.00
2022-10-06T15:32:20.532Z,1.00
2022-10-06T15:34:47.990Z,1.00
2022-10-06T15:37:15.566Z,1.00
2022-10-06T15:39:43.855Z,1.00
2022-10-06T15:42:11.268Z,1.00
2022-10-06T15:44:39.061Z,1.00
2022-10-06T15:47:07.807Z,1.00
2022-10-06T15:49:40.649Z,1.00
2022-10-06T15:52:11.968Z,1.00
2022-10-06T15:54:41.242Z,1.00
2022-10-06T15:57:14.977Z,1.00
2022-10-06T15:59:44.630Z,1.00
2022-10-06T16:02:17.526Z,1.00
2022-10-06T16:05:04.785Z,1.00
2022-10-06T16:07:34.091Z,1.00
2022-10-06T16:10:01.542Z,1.00
2022-10-06T16:12:29.158Z,1.00
2022-10-06T16:14:57.187Z,1.00
2022-10-06T16:17:24.498Z,1.00
2022-10-06T16:19:52.258Z,1.00
2022-10-06T16:22:20.095Z,1.00
2022-10-06T16:24:47.705Z,1.00
2022-10-06T16:27:16.043Z,1.00
2022-10-06T16:29:43.744Z,1.00
2022-10-06T16:32:11.375Z,1.00
2022-10-06T16:34:38.704Z,1.00
2022-10-06T16:37:06.440Z,1.00
2022-10-06T16:39:33.765Z,1.00
2022-10-06T16:42:01.082Z,1.00
2022-10-06T16:44:28.761Z,1.00
2022-10-06T16:46:56.181Z,1.00
2022-10-06T16:49:24.720Z,1.00
2022-10-06T16:51:52.349Z,1.00
2022-10-06T16:54:21.025Z,1.00
2022-10-06T16:56:52.294Z,1.00
2022-10-06T16:59:21.955Z,1.00
2022-10-06T17:01:50.501Z,1.00
2022-10-06T17:04:22.774Z,1.00
2022-10-06T17:06:55.990Z,1.00
2022-10-06T17:09:25.758Z,1.00
2022-10-06T17:12:04.716Z,1.00
2022-10-06T17:14:34.752Z,1.00
2022-10-06T17:17:02.550Z,1.00
2022-10-06T17:19:30.850Z,1.00
2022-10-06T17:21:59.785Z,1.00
2022-10-06T17:24:29.760Z,1.00
2022-10-06T17:26:58.323Z,1.00
2022-10-06T17:29:26.758Z,1.00
2022-10-06T17:31:59.582Z,1.00
2022-10-06T17:34:33.504Z,1.00
2022-10-06T17:37:02.298Z,1.00
2022-10-06T17:39:30.343Z,1.00
2022-10-06T17:41:57.947Z,1.00
2022-10-06T17:44:29.382Z,1.00
2022-10-06T17:46:59.302Z,1.00
2022-10-06T17:49:27.154Z,1.00
2022-10-06T17:51:55.982Z,1.00
2022-10-06T17:54:25.331Z,1.00
2022-10-06T17:56:56.072Z,1.00
2022-10-06T17:59:29.142Z,1.00
2022-10-06T18:01:59.492Z,2.20
2022-10-06T18:04:27.491Z,5.00
2022-10-06T18:06:56.210Z,9.30
2022-10-06T18:09:24.057Z,9.00
2022-10-06T18:12:00.194Z,6.80
2022-10-06T18:14:35.508Z,1.00
2022-10-06T18:17:04.187Z,1.00
2022-10-06T18:19:34.660Z,1.00
2022-10-06T18:22:05.219Z,1.00
2022-10-06T18:24:33.073Z,1.00
2022-10-06T18:27:01.979Z,1.00
2022-10-06T18:29:32.305Z,1.00
2022-10-06T18:32:22.487Z,1.00
2022-10-06T18:37:35.756Z,1.00
2022-10-06T18:40:06.725Z,1.00
2022-10-06T18:42:34.496Z,1.00
2022-10-06T18:45:20.602Z,1.60
2022-10-06T18:48:06.538Z,1.10
2022-10-06T18:50:35.222Z,4.50
2022-10-06T18:53:04.598Z,1.00
2022-10-06T18:55:32.691Z,1.00
2022-10-06T18:58:00.409Z,3.60
2022-10-06T19:00:28.337Z,6.50
2022-10-06T19:02:57.155Z,9.20
2022-10-06T19:05:24.935Z,16.90
2022-10-06T19:07:53.936Z,28.10
2022-10-06T19:10:22.168Z,24.70
2022-10-06T19:12:49.938Z,14.00
2022-10-06T19:15:20.617Z,15.50
2022-10-06T19:17:50.397Z,14.20
2022-10-06T19:20:18.936Z,24.20
2022-10-06T19:22:48.016Z,56.90
2022-10-06T19:25:19.049Z,69.20
2022-10-06T19:27:48.691Z,91.80
2022-10-06T19:30:17.697Z,99.40
2022-10-06T19:32:46.017Z,93.70
2022-10-06T19:35:14.075Z,94.80
2022-10-06T19:37:42.556Z,99.90
2022-10-06T19:40:11.588Z,95.40
2022-10-06T19:42:48.249Z,95.90
2022-10-06T19:45:17.698Z,99.90
2022-10-06T19:47:46.743Z,99.90
2022-10-06T19:50:16.525Z,99.90
2022-10-06T19:52:44.692Z,99.90
2022-10-06T19:55:12.348Z,99.90
2022-10-06T19:57:40.083Z,99.90
2022-10-06T20:00:08.975Z,99.90
2022-10-06T20:02:44.301Z,99.90
2022-10-06T20:05:14.084Z,99.90
2022-10-06T20:07:42.903Z,99.90
2022-10-06T20:10:12.017Z,99.90
2022-10-06T20:12:41.693Z,99.90
2022-10-06T20:15:10.185Z,99.90
2022-10-06T20:17:37.690Z,99.90
2022-10-06T20:20:05.624Z,99.90
2022-10-06T20:22:32.980Z,99.90
2022-10-06T20:25:02.045Z,99.90
2022-10-06T20:27:29.884Z,99.90
2022-10-06T20:29:58.202Z,99.90
2022-10-06T20:32:25.727Z,99.90
2022-10-06T20:34:53.330Z,99.90
2022-10-06T20:37:20.483Z,99.90
2022-10-06T20:40:06.430Z,99.90
2022-10-06T20:42:33.833Z,99.90
2022-10-06T20:45:01.138Z,99.90
2022-10-06T20:47:29.863Z,99.90
2022-10-06T20:49:57.176Z,99.90
2022-10-06T20:52:24.473Z,99.90
2022-10-06T20:54:52.499Z,99.90
2022-10-06T20:57:20.078Z,99.90
2022-10-06T20:59:47.278Z,99.90
2022-10-06T21:02:14.773Z,99.90
2022-10-06T21:04:45.225Z,99.90
2022-10-06T21:07:12.649Z,99.90
2022-10-06T21:09:40.459Z,99.90
2022-10-06T21:12:07.980Z,99.90
2022-10-06T21:14:36.360Z,99.90
2022-10-06T21:17:04.304Z,99.90
2022-10-06T21:19:31.600Z,99.90
2022-10-06T21:21:58.808Z,99.90
2022-10-06T21:24:26.147Z,99.90
2022-10-06T21:26:53.688Z,99.90
2022-10-06T21:29:21.112Z,99.90
2022-10-06T21:31:48.529Z,99.90
2022-10-06T21:34:15.719Z,99.90
2022-10-06T21:36:44.303Z,99.90
2022-10-06T21:39:12.736Z,99.90
2022-10-06T21:41:40.995Z,99.90
2022-10-06T21:44:13.556Z,99.90
2022-10-06T21:46:50.003Z,99.90
2022-10-06T21:49:22.200Z,99.90
2022-10-06T21:51:54.241Z,99.90
2022-10-06T21:54:22.878Z,99.90
2022-10-06T21:56:51.014Z,99.90
2022-10-06T21:59:18.841Z,99.90
2022-10-06T22:01:46.943Z,99.90
2022-10-06T22:04:15.026Z,1.00
2022-10-06T22:06:44.728Z,1.00
2022-10-06T22:09:15.112Z,1.00
2022-10-06T22:11:43.212Z,1.00
2022-10-06T22:14:16.185Z,1.00
2022-10-06T22:16:43.765Z,1.00
2022-10-06T22:19:12.926Z,1.00
2022-10-06T22:21:42.996Z,1.00
2022-10-06T22:24:15.770Z,1.00
2022-10-06T22:26:44.101Z,1.00
2022-10-06T22:29:13.916Z,99.90
2022-10-06T22:31:43.376Z,99.90
2022-10-06T22:34:12.590Z,99.90
2022-10-06T22:36:40.051Z,99.90
2022-10-06T22:39:07.378Z,1.00
2022-10-06T22:41:35.005Z,1.00
2022-10-06T22:44:02.907Z,1.00
2022-10-06T22:46:32.249Z,1.00
2022-10-06T22:48:59.598Z,1.00
2022-10-06T22:51:27.550Z,1.00
2022-10-06T22:53:58.375Z,1.00
2022-10-06T22:56:31.762Z,1.00
2022-10-06T22:59:00.041Z,1.00
2022-10-06T23:01:28.981Z,99.90
2022-10-06T23:03:57.343Z,1.00
2022-10-06T23:06:25.210Z,99.90
2022-10-06T23:08:53.006Z,99.90
2022-10-06T23:11:21.664Z,99.90
2022-10-06T23:13:50.592Z,99.90
2022-10-06T23:16:19.322Z,99.90
2022-10-06T23:18:47.965Z,1.00
2022-10-06T23:21:24.181Z,1.00
2022-10-06T23:23:54.412Z,1.00
2022-10-06T23:26:23.569Z,1.00
2022-10-06T23:28:53.160Z,1.00
2022-10-06T23:31:20.378Z,1.00
2022-10-06T23:33:48.172Z,1.00
2022-10-06T23:36:15.448Z,1.00
2022-10-06T23:38:42.633Z,1.00
2022-10-06T23:41:10.087Z,1.00
2022-10-06T23:43:37.568Z,1.00
2022-10-06T23:46:04.795Z,1.00
2022-10-06T23:48:32.217Z,1.00
2022-10-06T23:51:05.737Z,1.00
2022-10-06T23:53:34.056Z,1.00
2022-10-06T23:56:01.827Z,99.90
2022-10-06T23:58:29.258Z,6.80
